Daytona Beach, FL (32115)

10:56 AM EST on December 06, 2016 (GMT -0500)
Bethune Point | | Change Station

Elev 0 ft 29.20 °N, 81.01 °W | Updated 33 seconds ago

Mostly Cloudy
Mostly Cloudy
82.3 °F
Feels Like 88 °F
N
17.0
Wind Variable Wind from SSW

Today
High -- | Low -- °F
--% Chance of Precip.
Yesterday
High -- | Low -- °F
Precip. -- in
Pressure 29.86 in
Visibility 10.0 miles
Clouds Mostly Cloudy 2500 ft
Mostly Cloudy 3200 ft
Mostly Cloudy 4000 ft
Heat Index 88 °F
Dew Point 74 °F
Humidity 76%
Rainfall 0.00 in
Snow Depth Not available.
7:04 AM 5:25 PM
Waxing Crescent, 43% visible
METAR KDAB 061553Z 21014G20KT 10SM BKN025 BKN032 BKN040 28/23 A2986 RMK AO2 SLP110 T02780228
Pressure 29.86 in
Visibility 10.0 miles
Clouds Mostly Cloudy 2500 ft
Mostly Cloudy 3200 ft
Mostly Cloudy 4000 ft
Heat Index 88 °F
Dew Point 74 °F
Humidity 76%
Rainfall 0.00 in
Snow Depth Not available.
7:04 AM 5:25 PM
Waxing Crescent, 43% visible
METAR KDAB 061553Z 21014G20KT 10SM BKN025 BKN032 BKN040 28/23 A2986 RMK AO2 SLP110 T02780228

10-Day Weather Forecast

Almanac

Astronomy

Dec. 06, 2016 Rise Set
Actual Time
Civil Twilight
Nautical Twilight
Astronomical Twilight
Moon
Length of Visible Light
Length of Day
Tomorrow will be .
, % of the Moon is Illuminated

Today's Extremes

State Highs State Lows

Community

WunderPhotos

Upload Photos

1,955,959 photos uploaded!

WunderBlog® & News

Nearby

Air Quality

  Air Quality AQ Index Pollutant
Not available.

Snow Depth

Station Depth Elevation

Earthquake Activity

City Distance Mag. Time & Date
Minimum magnitude displayed is 2.5.

Coastal Water Temperatures

Place Temperature

Stations

Nearby Weather Stations

Station Location Temp. Windchill Dew Point Humidity Wind Precip. Elev Updated Type
                   

Watches & Warnings

There are currently no watches in effect.